La Crosse, Wisconsin
Current Conditions -  °F | °C
As of 7:53 PM on Friday 24 Oct 2014 (Local Time) from KLSE Reporting Station
Overcast Overcast  
Wind Chill: 60°   Ceiling: 2800
Heat Index: 60°   Visibility: 10mi
Dew Point: 56°   Wind: 8mph
Humidity: 86%   Direction: 190°S
Pressure: 29.89"   Gusts: NA
Location:  43.81°N, 91.25°W
Report Text: KLSE 250053Z 19007KT 10SM OVC028 16/13 A2989 RMK AO2 SLP119 T01560133
Loading
Personal Weather Stations






























Interactive Weather Map
Tropical Storm Tracking
New forecast layout! Learn more

10-Day Weather Forecast

Advertisements
Track Severe Weather on mobile